Time;durP1;ratioP1;P1;durP2;ratioP2;P2;SDS_P1;SDS_P2;PMS_P1;PMS_P2;Temp;Humidity;BMP_temperature;BMP_pressure;BME280_temperature;BME280_humidity;BME280_pressure;Samples;Min_cycle;Max_cycle;Signal;HPM_P1;HPM_P2
2023/12/26 00:01:24;;;;;;;3.13;1.80;;;;;;;;;;4989025;28;20022;-86
2023/12/26 00:03:49;;;;;;;2.93;2.27;;;;;;;;;;4988136;28;20657;-85
2023/12/26 00:06:18;;;;;;;7.93;1.90;;;;;;;;;;4989332;28;20034;-86
2023/12/26 00:08:44;;;;;;;4.35;2.33;;;;;;;;;;4989855;28;20037;-85
2023/12/26 00:11:09;;;;;;;3.55;1.90;;;;;;;;;;4988232;28;20030;-86
2023/12/26 00:13:35;;;;;;;3.10;2.53;;;;;;;;;;4985536;28;20072;-86
2023/12/26 00:16:00;;;;;;;5.87;1.40;;;;;;;;;;4990522;28;20053;-85
2023/12/26 00:18:25;;;;;;;8.23;2.00;;;;;;;;;;4972922;28;20034;-86
2023/12/26 00:20:51;;;;;;;6.17;1.90;;;;;;;;;;4990716;28;20042;-86
2023/12/26 00:23:16;;;;;;;4.38;2.10;;;;;;;;;;4990324;28;20396;-86
2023/12/26 00:25:44;;;;;;;7.67;1.87;;;;;;;;;;4991485;28;20146;-89
2023/12/26 00:28:09;;;;;;;4.73;1.60;;;;;;;;;;4990750;28;20018;-85
2023/12/26 00:30:34;;;;;;;5.80;2.10;;;;;;;;;;4990539;28;20686;-86
2023/12/26 00:32:59;;;;;;;6.10;2.10;;;;;;;;;;4990404;28;20557;-86
2023/12/26 00:35:25;;;;;;;2.00;1.57;;;;;;;;;;4990741;28;20018;-86
2023/12/26 00:37:50;;;;;;;2.43;1.83;;;;;;;;;;4972830;28;20010;-86
2023/12/26 00:40:15;;;;;;;2.73;1.70;;;;;;;;;;4990434;28;20022;-86
2023/12/26 00:42:42;;;;;;;5.50;1.83;;;;;;;;;;4989338;28;20064;-86
2023/12/26 00:45:08;;;;;;;4.60;1.65;;;;;;;;;;4990252;28;20022;-86
2023/12/26 00:47:34;;;;;;;7.00;1.98;;;;;;;;;;4990118;28;20482;-86
2023/12/26 00:49:59;;;;;;;5.13;1.47;;;;;;;;;;4988598;28;20069;-87
2023/12/26 00:52:25;;;;;;;3.23;1.50;;;;;;;;;;4990497;28;20022;-88
2023/12/26 00:54:51;;;;;;;3.23;1.50;;;;;;;;;;4982940;28;20285;-88
2023/12/26 00:57:16;;;;;;;5.63;1.87;;;;;;;;;;4988926;28;20034;-86
2023/12/26 00:59:41;;;;;;;6.93;1.48;;;;;;;;;;4989465;28;20026;-86
2023/12/26 01:02:06;;;;;;;4.47;1.70;;;;;;;;;;4985805;28;20189;-85
2023/12/26 01:04:31;;;;;;;3.27;1.40;;;;;;;;;;4989270;28;20032;-86
2023/12/26 01:06:57;;;;;;;2.60;1.60;;;;;;;;;;4989230;28;20105;-87
2023/12/26 01:09:22;;;;;;;7.63;1.70;;;;;;;;;;4989917;28;20050;-89
2023/12/26 01:11:48;;;;;;;2.93;1.60;;;;;;;;;;4988400;28;20042;-86
2023/12/26 01:14:13;;;;;;;3.10;1.50;;;;;;;;;;4989456;28;20710;-86
2023/12/26 01:16:39;;;;;;;4.10;1.40;;;;;;;;;;4988734;28;20018;-86
2023/12/26 01:19:04;;;;;;;2.20;1.50;;;;;;;;;;4999696;28;20019;-85
2023/12/26 01:21:30;;;;;;;2.13;1.40;;;;;;;;;;4988355;28;20026;-86
2023/12/26 01:23:55;;;;;;;4.50;1.40;;;;;;;;;;4989596;28;20094;-87
2023/12/26 01:26:22;;;;;;;5.33;1.50;;;;;;;;;;4988654;28;20083;-87
2023/12/26 01:28:47;;;;;;;4.13;1.42;;;;;;;;;;4989512;28;20034;-89
2023/12/26 01:31:12;;;;;;;1.80;1.30;;;;;;;;;;4987902;28;20104;-86
2023/12/26 01:33:37;;;;;;;1.30;1.10;;;;;;;;;;4989029;28;20022;-87
2023/12/26 01:36:03;;;;;;;2.03;1.40;;;;;;;;;;4988222;28;20022;-86
2023/12/26 01:38:28;;;;;;;2.73;1.33;;;;;;;;;;4989402;28;20023;-85
2023/12/26 01:40:53;;;;;;;2.77;1.93;;;;;;;;;;4987601;28;20030;-86
2023/12/26 01:43:18;;;;;;;3.30;1.70;;;;;;;;;;4989223;28;20084;-87
2023/12/26 01:45:44;;;;;;;2.83;1.50;;;;;;;;;;4989574;28;20022;-86
2023/12/26 01:48:10;;;;;;;4.27;2.13;;;;;;;;;;4989485;28;20292;-86
2023/12/26 01:50:36;;;;;;;3.58;2.00;;;;;;;;;;4987945;28;20022;-87
2023/12/26 01:53:02;;;;;;;6.37;2.03;;;;;;;;;;4990112;28;20022;-87
2023/12/26 01:55:28;;;;;;;6.68;2.15;;;;;;;;;;4991780;28;20014;-88
2023/12/26 01:57:54;;;;;;;6.93;2.20;;;;;;;;;;4990835;28;20485;-87
2023/12/26 02:00:19;;;;;;;3.35;2.35;;;;;;;;;;4987803;28;20137;-87
2023/12/26 02:02:44;;;;;;;4.80;2.60;;;;;;;;;;4989466;28;20026;-87
2023/12/26 02:05:12;;;;;;;6.93;2.70;;;;;;;;;;5002993;28;20045;-86
2023/12/26 02:07:37;;;;;;;3.00;2.63;;;;;;;;;;4988561;28;20018;-87
2023/12/26 02:10:05;;;;;;;5.33;2.50;;;;;;;;;;4988407;28;20165;-87
2023/12/26 02:12:31;;;;;;;2.42;2.22;;;;;;;;;;4990517;28;20080;-87
2023/12/26 02:14:57;;;;;;;3.60;2.03;;;;;;;;;;4991840;28;20101;-87
2023/12/26 02:17:24;;;;;;;2.92;2.03;;;;;;;;;;4992077;28;20027;-87
2023/12/26 02:19:49;;;;;;;3.00;1.65;;;;;;;;;;4992593;28;20046;-86
2023/12/26 02:22:14;;;;;;;2.57;2.00;;;;;;;;;;4990960;28;20037;-87
2023/12/26 02:24:43;;;;;;;4.47;2.30;;;;;;;;;;4991550;28;20109;-87
2023/12/26 02:27:15;;;;;;;3.70;2.10;;;;;;;;;;4976073;28;20387;-87
2023/12/26 02:29:41;;;;;;;3.28;2.15;;;;;;;;;;4975838;28;20149;-87
2023/12/26 02:32:07;;;;;;;3.47;2.05;;;;;;;;;;4991408;28;20018;-86
2023/12/26 02:34:33;;;;;;;3.93;2.93;;;;;;;;;;4992126;28;20058;-86
2023/12/26 02:36:58;;;;;;;4.10;2.50;;;;;;;;;;4992304;28;20042;-87
2023/12/26 02:39:23;;;;;;;4.83;2.30;;;;;;;;;;4991183;28;20035;-87
2023/12/26 02:41:48;;;;;;;3.50;2.40;;;;;;;;;;4991268;28;20038;-87
2023/12/26 02:44:14;;;;;;;3.00;2.30;;;;;;;;;;4991662;28;20073;-86
2023/12/26 02:46:39;;;;;;;2.03;1.83;;;;;;;;;;4992266;28;20135;-87
2023/12/26 02:49:04;;;;;;;4.27;2.60;;;;;;;;;;4991669;28;20010;-88
2023/12/26 02:51:29;;;;;;;3.30;3.00;;;;;;;;;;4964246;28;20035;-86
2023/12/26 02:53:55;;;;;;;3.40;2.20;;;;;;;;;;4991871;28;20368;-87
2023/12/26 02:56:20;;;;;;;2.87;2.50;;;;;;;;;;4991751;28;20109;-87
2023/12/26 02:58:45;;;;;;;2.83;2.57;;;;;;;;;;4992079;28;20101;-87
2023/12/26 03:01:10;;;;;;;3.27;2.83;;;;;;;;;;4974258;28;20333;-86
2023/12/26 03:03:36;;;;;;;4.07;2.70;;;;;;;;;;4990274;28;20026;-87
2023/12/26 03:06:01;;;;;;;3.77;3.40;;;;;;;;;;4991867;28;20022;-87
2023/12/26 03:08:26;;;;;;;6.37;3.33;;;;;;;;;;4992083;28;20458;-87
2023/12/26 03:10:52;;;;;;;4.07;3.40;;;;;;;;;;4991318;28;20034;-87
2023/12/26 03:13:17;;;;;;;4.30;3.73;;;;;;;;;;4989416;28;20026;-87
2023/12/26 03:15:42;;;;;;;6.15;4.40;;;;;;;;;;4992246;28;20026;-86
2023/12/26 03:18:08;;;;;;;6.10;4.50;;;;;;;;;;4990888;28;20459;-86
2023/12/26 03:20:33;;;;;;;7.30;4.57;;;;;;;;;;4973157;28;20513;-87
2023/12/26 03:22:58;;;;;;;7.00;4.80;;;;;;;;;;4989858;28;20011;-86
2023/12/26 03:25:23;;;;;;;10.70;5.33;;;;;;;;;;4990193;28;20021;-86
2023/12/26 03:27:49;;;;;;;10.07;5.27;;;;;;;;;;4973542;28;20490;-87
2023/12/26 03:30:14;;;;;;;9.80;5.25;;;;;;;;;;4991264;28;20108;-87
2023/12/26 03:32:40;;;;;;;14.33;5.23;;;;;;;;;;4991162;28;20022;-87
2023/12/26 03:35:06;;;;;;;10.60;5.10;;;;;;;;;;4974225;28;20478;-87
2023/12/26 03:37:31;;;;;;;8.68;4.97;;;;;;;;;;4991170;28;20572;-87
2023/12/26 03:39:56;;;;;;;10.33;4.60;;;;;;;;;;4991133;28;20089;-87
2023/12/26 03:42:21;;;;;;;9.57;4.70;;;;;;;;;;4991377;28;20506;-87
2023/12/26 03:44:47;;;;;;;10.67;4.60;;;;;;;;;;4990243;28;20556;-87
2023/12/26 03:47:13;;;;;;;10.02;4.82;;;;;;;;;;4973128;28;20023;-87
2023/12/26 03:49:38;;;;;;;8.17;4.27;;;;;;;;;;4990586;28;20055;-87
2023/12/26 03:52:04;;;;;;;10.03;4.50;;;;;;;;;;4989855;28;20282;-86
2023/12/26 03:54:29;;;;;;;9.60;4.40;;;;;;;;;;4991194;28;20022;-87
2023/12/26 03:56:54;;;;;;;15.23;4.13;;;;;;;;;;4989960;28;20026;-87
2023/12/26 03:59:19;;;;;;;10.43;3.77;;;;;;;;;;4970546;28;20038;-87
2023/12/26 04:01:45;;;;;;;13.73;4.20;;;;;;;;;;4971353;28;20025;-87
2023/12/26 04:04:12;;;;;;;8.02;3.40;;;;;;;;;;4971848;28;20117;-86
2023/12/26 04:06:37;;;;;;;12.43;3.33;;;;;;;;;;4989943;28;20015;-88
2023/12/26 04:09:02;;;;;;;11.80;3.13;;;;;;;;;;4989989;28;20049;-87
2023/12/26 04:11:30;;;;;;;12.13;3.33;;;;;;;;;;4988589;28;20026;-87
2023/12/26 04:13:55;;;;;;;10.85;3.67;;;;;;;;;;4990527;28;20033;-87
2023/12/26 04:16:20;;;;;;;9.47;3.40;;;;;;;;;;4990498;28;20026;-86
2023/12/26 04:18:45;;;;;;;13.03;3.53;;;;;;;;;;4991157;28;20153;-87
2023/12/26 04:21:10;;;;;;;13.17;3.13;;;;;;;;;;4971876;28;20030;-87
2023/12/26 04:23:36;;;;;;;9.43;3.17;;;;;;;;;;4990240;28;20030;-88
2023/12/26 04:26:01;;;;;;;7.03;2.43;;;;;;;;;;4989410;28;20107;-87
2023/12/26 04:28:26;;;;;;;10.10;2.70;;;;;;;;;;4994414;28;20050;-87
2023/12/26 04:30:51;;;;;;;7.93;2.20;;;;;;;;;;4993500;28;20044;-86
2023/12/26 04:33:17;;;;;;;5.63;1.80;;;;;;;;;;4989803;28;20288;-87
2023/12/26 04:35:43;;;;;;;15.20;1.60;;;;;;;;;;4989410;28;20454;-87
2023/12/26 04:38:09;;;;;;;12.80;2.10;;;;;;;;;;4990358;28;20277;-87
2023/12/26 04:40:34;;;;;;;9.93;1.57;;;;;;;;;;4968982;28;20144;-87
2023/12/26 04:43:05;;;;;;;15.57;1.70;;;;;;;;;;4960923;28;20022;-87
2023/12/26 04:45:30;;;;;;;13.43;1.40;;;;;;;;;;4989158;28;20022;-87
2023/12/26 04:47:56;;;;;;;9.57;1.40;;;;;;;;;;4990617;28;20056;-87
2023/12/26 04:50:21;;;;;;;8.57;1.23;;;;;;;;;;4989901;28;20037;-86
2023/12/26 04:52:46;;;;;;;8.30;1.13;;;;;;;;;;4990043;28;20034;-87
2023/12/26 04:55:11;;;;;;;9.07;1.47;;;;;;;;;;4990274;28;20143;-87
2023/12/26 04:57:37;;;;;;;11.43;0.90;;;;;;;;;;4990284;28;20037;-87
2023/12/26 05:00:02;;;;;;;12.70;1.23;;;;;;;;;;4988649;28;20041;-86
2023/12/26 05:02:28;;;;;;;8.73;1.40;;;;;;;;;;4989902;28;20026;-87
2023/12/26 05:04:53;;;;;;;11.17;1.07;;;;;;;;;;4993245;28;20497;-87
2023/12/26 05:07:18;;;;;;;6.10;1.03;;;;;;;;;;4993539;28;20026;-87
2023/12/26 05:09:44;;;;;;;9.33;1.23;;;;;;;;;;4994045;28;20467;-87
2023/12/26 05:12:09;;;;;;;9.77;1.57;;;;;;;;;;4991769;28;20040;-87
2023/12/26 05:14:34;;;;;;;6.50;1.00;;;;;;;;;;4990352;28;20466;-87
2023/12/26 05:16:59;;;;;;;10.77;1.70;;;;;;;;;;4990255;28;20026;-87
2023/12/26 05:19:25;;;;;;;8.70;1.17;;;;;;;;;;4990956;28;20289;-87
2023/12/26 05:21:51;;;;;;;10.00;1.20;;;;;;;;;;4990026;28;20042;-86
2023/12/26 05:24:16;;;;;;;7.47;1.08;;;;;;;;;;4990087;28;20014;-86
2023/12/26 05:26:42;;;;;;;10.20;1.40;;;;;;;;;;4990457;28;20029;-86
2023/12/26 05:29:08;;;;;;;10.35;1.10;;;;;;;;;;4972972;28;20022;-87
2023/12/26 05:31:33;;;;;;;10.17;1.30;;;;;;;;;;4990389;28;20041;-87
2023/12/26 05:34:01;;;;;;;13.07;1.60;;;;;;;;;;4991107;28;20050;-87
2023/12/26 05:36:26;;;;;;;17.70;1.40;;;;;;;;;;4990481;28;20026;-86
2023/12/26 05:38:51;;;;;;;13.23;1.27;;;;;;;;;;4990097;28;20015;-86
2023/12/26 05:41:16;;;;;;;11.70;1.30;;;;;;;;;;4989583;28;20294;-86
2023/12/26 05:43:42;;;;;;;12.20;1.20;;;;;;;;;;4989952;28;20023;-87
2023/12/26 05:46:07;;;;;;;12.77;1.20;;;;;;;;;;4990704;28;20022;-87
2023/12/26 05:48:33;;;;;;;10.87;1.40;;;;;;;;;;4992100;28;20045;-87
2023/12/26 05:50:58;;;;;;;7.78;1.30;;;;;;;;;;4993577;28;20098;-87
2023/12/26 05:53:24;;;;;;;10.27;1.13;;;;;;;;;;4993100;28;20038;-87
2023/12/26 05:55:49;;;;;;;10.68;1.08;;;;;;;;;;4993279;28;20702;-87
2023/12/26 05:58:15;;;;;;;11.83;1.27;;;;;;;;;;4993347;28;20023;-86
2023/12/26 06:00:40;;;;;;;11.73;1.10;;;;;;;;;;4992977;28;20034;-86
2023/12/26 06:03:05;;;;;;;8.20;1.10;;;;;;;;;;4991948;28;20010;-86
2023/12/26 06:05:30;;;;;;;9.27;1.00;;;;;;;;;;4992015;28;20051;-87
2023/12/26 06:07:56;;;;;;;8.10;1.07;;;;;;;;;;4992769;28;20026;-86
2023/12/26 06:10:21;;;;;;;8.35;0.80;;;;;;;;;;4992884;28;20260;-87
2023/12/26 06:12:46;;;;;;;7.47;1.30;;;;;;;;;;4992223;28;20081;-87
2023/12/26 06:15:12;;;;;;;13.30;1.17;;;;;;;;;;4993113;28;20029;-86
2023/12/26 06:17:37;;;;;;;10.93;1.00;;;;;;;;;;4993107;28;20014;-86
2023/12/26 06:20:03;;;;;;;11.77;0.90;;;;;;;;;;4992458;28;20038;-87
2023/12/26 06:22:28;;;;;;;10.95;1.00;;;;;;;;;;4991152;28;20394;-87
2023/12/26 06:24:53;;;;;;;8.00;0.87;;;;;;;;;;4991225;28;20025;-86
2023/12/26 06:27:19;;;;;;;8.67;0.97;;;;;;;;;;4992547;28;20026;-86
2023/12/26 06:29:44;;;;;;;13.40;1.70;;;;;;;;;;4976590;28;20053;-86
2023/12/26 06:32:09;;;;;;;8.90;1.20;;;;;;;;;;4995971;28;20022;-87
2023/12/26 06:34:35;;;;;;;8.53;0.80;;;;;;;;;;4994109;28;20021;-86
2023/12/26 06:37:00;;;;;;;11.35;1.10;;;;;;;;;;4992040;28;20040;-86
2023/12/26 06:39:25;;;;;;;10.20;1.10;;;;;;;;;;4992080;28;20038;-86
2023/12/26 06:41:50;;;;;;;14.63;1.27;;;;;;;;;;4990810;28;20029;-87
2023/12/26 06:44:16;;;;;;;8.13;1.03;;;;;;;;;;4992151;28;20068;-88
2023/12/26 06:46:41;;;;;;;10.97;1.40;;;;;;;;;;4992633;28;20034;-87
2023/12/26 06:49:07;;;;;;;9.97;0.93;;;;;;;;;;4992651;28;20018;-87
2023/12/26 06:51:32;;;;;;;13.20;1.87;;;;;;;;;;4991079;28;20454;-87
2023/12/26 06:53:57;;;;;;;7.87;1.10;;;;;;;;;;4992218;28;20304;-87
2023/12/26 06:56:22;;;;;;;10.37;1.27;;;;;;;;;;4991219;28;20112;-88
2023/12/26 06:58:47;;;;;;;18.23;1.33;;;;;;;;;;4972121;28;20054;-87
2023/12/26 07:01:13;;;;;;;15.10;1.10;;;;;;;;;;4983432;28;20553;-87
2023/12/26 07:03:39;;;;;;;14.23;1.05;;;;;;;;;;4992477;28;20027;-89
2023/12/26 07:06:04;;;;;;;5.40;0.87;;;;;;;;;;4990222;28;20389;-87
2023/12/26 07:08:29;;;;;;;12.27;0.83;;;;;;;;;;4993190;28;20019;-87
2023/12/26 07:10:55;;;;;;;5.87;0.90;;;;;;;;;;4991445;28;20606;-86
2023/12/26 07:13:20;;;;;;;8.17;1.23;;;;;;;;;;4990638;28;20022;-87
2023/12/26 07:15:45;;;;;;;12.13;1.10;;;;;;;;;;4974529;28;20474;-84
2023/12/26 07:18:11;;;;;;;9.30;1.05;;;;;;;;;;4989278;28;20434;-86
2023/12/26 07:20:36;;;;;;;13.13;1.10;;;;;;;;;;4989570;28;20053;-84
2023/12/26 07:23:01;;;;;;;19.43;1.10;;;;;;;;;;4991409;28;20336;-84
2023/12/26 07:25:29;;;;;;;14.10;1.10;;;;;;;;;;4991662;28;20474;-84
2023/12/26 07:27:54;;;;;;;10.05;1.27;;;;;;;;;;4992072;28;20018;-84
2023/12/26 07:30:19;;;;;;;10.07;1.00;;;;;;;;;;4990607;28;20081;-84
2023/12/26 07:32:44;;;;;;;10.30;1.63;;;;;;;;;;4990139;28;20022;-85
2023/12/26 07:35:10;;;;;;;13.77;1.13;;;;;;;;;;4990767;28;20135;-84
2023/12/26 07:37:35;;;;;;;8.10;1.00;;;;;;;;;;4991542;28;20319;-84
2023/12/26 07:40:02;;;;;;;16.17;1.30;;;;;;;;;;4990509;28;20038;-84
2023/12/26 07:42:27;;;;;;;14.30;1.30;;;;;;;;;;4990611;28;20045;-83
2023/12/26 07:44:52;;;;;;;10.73;1.40;;;;;;;;;;4991177;28;20019;-84
2023/12/26 07:47:17;;;;;;;14.90;1.13;;;;;;;;;;4990501;28;20138;-83
2023/12/26 07:49:43;;;;;;;11.83;1.40;;;;;;;;;;4990092;28;20160;-83
2023/12/26 07:52:08;;;;;;;12.73;1.17;;;;;;;;;;4988299;28;20061;-83
2023/12/26 07:54:33;;;;;;;12.30;1.13;;;;;;;;;;4991044;28;20042;-84
2023/12/26 07:56:58;;;;;;;9.17;1.10;;;;;;;;;;4990939;28;20026;-84
2023/12/26 07:59:24;;;;;;;18.93;1.70;;;;;;;;;;4990630;28;20076;-84
2023/12/26 08:01:49;;;;;;;9.35;1.42;;;;;;;;;;4990690;28;20026;-85
2023/12/26 08:04:15;;;;;;;9.67;1.20;;;;;;;;;;4988983;28;20042;-84
2023/12/26 08:06:40;;;;;;;9.67;1.10;;;;;;;;;;4990552;28;20019;-84
2023/12/26 08:09:05;;;;;;;9.70;1.10;;;;;;;;;;4989970;28;20163;-84
2023/12/26 08:11:30;;;;;;;8.87;1.40;;;;;;;;;;4989734;28;20022;-84
2023/12/26 08:13:56;;;;;;;14.93;1.23;;;;;;;;;;4989918;28;20292;-85
2023/12/26 08:16:21;;;;;;;13.70;1.42;;;;;;;;;;4990340;28;20041;-83
2023/12/26 08:18:46;;;;;;;15.00;1.50;;;;;;;;;;4989942;28;20019;-86
2023/12/26 08:21:12;;;;;;;17.17;1.63;;;;;;;;;;4989255;28;20116;-85
2023/12/26 08:23:37;;;;;;;10.70;1.10;;;;;;;;;;4990238;28;20068;-85
2023/12/26 08:26:06;;;;;;;8.77;1.20;;;;;;;;;;4989829;28;20030;-85
2023/12/26 08:28:31;;;;;;;8.20;1.15;;;;;;;;;;4990864;28;20026;-85
2023/12/26 08:30:56;;;;;;;14.67;1.30;;;;;;;;;;4991937;28;20018;-86
2023/12/26 08:33:22;;;;;;;10.87;1.40;;;;;;;;;;4994326;28;20398;-86
2023/12/26 08:35:48;;;;;;;16.17;1.20;;;;;;;;;;4988078;28;20117;-86
2023/12/26 08:38:13;;;;;;;13.68;1.58;;;;;;;;;;4990243;28;20140;-86
2023/12/26 08:40:38;;;;;;;8.50;1.47;;;;;;;;;;4989854;28;20073;-85
2023/12/26 08:43:04;;;;;;;14.90;1.67;;;;;;;;;;4990379;28;20018;-86
2023/12/26 08:45:30;;;;;;;14.20;1.30;;;;;;;;;;4989609;28;20085;-86
2023/12/26 08:47:56;;;;;;;10.77;1.50;;;;;;;;;;4988136;28;20289;-86
2023/12/26 08:50:21;;;;;;;13.45;1.70;;;;;;;;;;4988492;28;20101;-86
2023/12/26 08:52:46;;;;;;;13.63;1.63;;;;;;;;;;4989909;28;20409;-86
2023/12/26 08:55:12;;;;;;;10.47;1.23;;;;;;;;;;4988121;28;20453;-84
2023/12/26 08:57:37;;;;;;;14.33;1.83;;;;;;;;;;4989024;28;20018;-84
2023/12/26 09:00:04;;;;;;;14.67;1.90;;;;;;;;;;4989431;28;20386;-85
2023/12/26 09:02:29;;;;;;;11.80;1.40;;;;;;;;;;4988219;28;20022;-84
2023/12/26 09:04:54;;;;;;;17.50;1.73;;;;;;;;;;4989488;28;20019;-84
2023/12/26 09:07:20;;;;;;;16.53;1.73;;;;;;;;;;4990289;28;20490;-85
2023/12/26 09:09:45;;;;;;;25.03;1.90;;;;;;;;;;4990012;28;20014;-86
2023/12/26 09:12:10;;;;;;;11.40;1.23;;;;;;;;;;4987124;28;20072;-86
2023/12/26 09:14:36;;;;;;;11.55;1.40;;;;;;;;;;4990068;28;20029;-88
2023/12/26 09:17:02;;;;;;;11.93;1.30;;;;;;;;;;4988205;28;20070;-89
2023/12/26 09:19:28;;;;;;;13.63;1.40;;;;;;;;;;4987691;28;20317;-89
2023/12/26 09:21:54;;;;;;;19.73;1.90;;;;;;;;;;4991626;28;20157;-89
2023/12/26 09:24:19;;;;;;;13.53;1.70;;;;;;;;;;4994749;28;20537;-89
2023/12/26 09:26:44;;;;;;;7.00;1.13;;;;;;;;;;4993882;28;20026;-88
2023/12/26 09:29:09;;;;;;;10.87;1.30;;;;;;;;;;4991063;28;20006;-90
2023/12/26 09:31:36;;;;;;;12.77;1.60;;;;;;;;;;4993627;28;20033;-89
2023/12/26 09:34:01;;;;;;;14.38;1.50;;;;;;;;;;4992812;28;20121;-86
2023/12/26 09:36:26;;;;;;;15.73;1.83;;;;;;;;;;4993407;28;20097;-85
2023/12/26 09:38:51;;;;;;;17.13;1.40;;;;;;;;;;4993392;28;20077;-85
2023/12/26 09:41:21;;;;;;;9.67;1.23;;;;;;;;;;4992330;28;20042;-86
2023/12/26 09:43:46;;;;;;;12.80;2.28;;;;;;;;;;4993155;28;20026;-84
2023/12/26 09:46:12;;;;;;;13.73;1.30;;;;;;;;;;4991551;28;20080;-85
2023/12/26 09:48:37;;;;;;;17.53;1.80;;;;;;;;;;4992942;28;20025;-84
2023/12/26 09:51:07;;;;;;;17.13;1.67;;;;;;;;;;4992417;28;20105;-85
2023/12/26 09:53:38;;;;;;;12.23;1.45;;;;;;;;;;4992872;28;20018;-85
2023/12/26 09:56:04;;;;;;;10.88;1.27;;;;;;;;;;4992499;28;20057;-84
2023/12/26 09:58:29;;;;;;;9.70;1.67;;;;;;;;;;4993290;28;20050;-85
2023/12/26 10:00:55;;;;;;;19.00;1.50;;;;;;;;;;4992960;28;20022;-86
2023/12/26 10:03:21;;;;;;;17.83;1.87;;;;;;;;;;4992465;28;20037;-87
2023/12/26 10:05:46;;;;;;;11.73;1.67;;;;;;;;;;4992886;28;20034;-86
2023/12/26 10:08:11;;;;;;;9.70;1.10;;;;;;;;;;4993268;28;20022;-86
2023/12/26 10:10:37;;;;;;;18.10;1.40;;;;;;;;;;4992750;28;20054;-87
2023/12/26 10:13:02;;;;;;;11.97;1.77;;;;;;;;;;4992463;28;20046;-87
2023/12/26 10:15:28;;;;;;;9.45;1.17;;;;;;;;;;4993355;28;20011;-87
2023/12/26 10:17:53;;;;;;;21.40;1.97;;;;;;;;;;4993241;28;20026;-89
2023/12/26 10:20:18;;;;;;;21.10;1.87;;;;;;;;;;4992434;28;20034;-86
2023/12/26 10:22:44;;;;;;;14.13;1.60;;;;;;;;;;4991667;28;20104;-86
2023/12/26 10:25:10;;;;;;;15.53;1.60;;;;;;;;;;4971609;28;20412;-87
2023/12/26 10:27:36;;;;;;;12.60;1.52;;;;;;;;;;4973963;28;20019;-89
2023/12/26 10:30:02;;;;;;;16.67;2.10;;;;;;;;;;4974083;28;20487;-86
2023/12/26 10:32:27;;;;;;;13.65;1.60;;;;;;;;;;4982935;28;20057;-89
2023/12/26 10:34:53;;;;;;;12.13;1.63;;;;;;;;;;4992581;28;20023;-87
2023/12/26 10:37:21;;;;;;;13.32;1.65;;;;;;;;;;4992844;28;20355;-86
2023/12/26 10:39:47;;;;;;;12.47;1.87;;;;;;;;;;4992342;28;20061;-87
2023/12/26 10:42:13;;;;;;;11.90;1.27;;;;;;;;;;4991590;28;20278;-86
2023/12/26 10:45:01;;;;;;;20.17;1.80;;;;;;;;;;4993080;28;20018;-86
2023/12/26 10:47:28;;;;;;;14.73;1.70;;;;;;;;;;4992860;28;20277;-87
2023/12/26 10:49:55;;;;;;;15.48;1.73;;;;;;;;;;4992708;28;20029;-87
2023/12/26 10:52:21;;;;;;;13.05;1.33;;;;;;;;;;4992273;28;20101;-87
2023/12/26 10:54:48;;;;;;;14.10;1.40;;;;;;;;;;4992768;28;20449;-87
2023/12/26 10:57:14;;;;;;;19.63;1.77;;;;;;;;;;4996655;28;20042;-88
2023/12/26 13:53:43;;;;;;;13.20;2.17;;;;;;;;;;4989672;28;20283;-89
2023/12/26 13:56:27;;;;;;;12.23;1.70;;;;;;;;;;4989686;28;20070;-91
2023/12/26 13:59:11;;;;;;;9.55;1.35;;;;;;;;;;4990017;28;20026;-90
2023/12/26 14:01:55;;;;;;;12.20;1.65;;;;;;;;;;4988797;28;20038;-91
2023/12/26 14:04:38;;;;;;;12.55;1.77;;;;;;;;;;4990051;28;20038;-91
2023/12/26 14:07:22;;;;;;;9.47;1.73;;;;;;;;;;4989532;28;20088;-91
2023/12/26 14:10:06;;;;;;;12.70;1.30;;;;;;;;;;4992749;28;20285;-91
2023/12/26 14:12:50;;;;;;;16.70;1.55;;;;;;;;;;4993455;28;20018;-89
2023/12/26 14:15:34;;;;;;;6.75;0.98;;;;;;;;;;4990018;28;20486;-89
2023/12/26 14:18:17;;;;;;;13.52;1.60;;;;;;;;;;4993932;28;20034;-88
2023/12/26 14:21:02;;;;;;;11.45;1.50;;;;;;;;;;4991857;28;20042;-90
2023/12/26 14:23:47;;;;;;;7.17;1.10;;;;;;;;;;4994016;28;20027;-91
2023/12/26 14:26:31;;;;;;;8.93;1.30;;;;;;;;;;4998830;28;20331;-90
2023/12/26 14:29:14;;;;;;;9.10;1.02;;;;;;;;;;4999401;28;20026;-90
2023/12/26 14:32:02;;;;;;;19.17;1.92;;;;;;;;;;4982210;28;20057;-91
2023/12/26 14:34:46;;;;;;;11.50;1.42;;;;;;;;;;5001525;28;20034;-90
2023/12/26 14:37:30;;;;;;;11.38;1.63;;;;;;;;;;5008700;28;20033;-91
2023/12/26 14:40:16;;;;;;;9.20;1.30;;;;;;;;;;4994730;28;20090;-90
2023/12/26 14:43:00;;;;;;;13.65;1.38;;;;;;;;;;4975359;28;20030;-90
2023/12/26 14:45:45;;;;;;;12.98;1.23;;;;;;;;;;4983974;28;20038;-91
2023/12/26 14:48:29;;;;;;;9.13;1.30;;;;;;;;;;4995018;28;20033;-91
2023/12/26 14:51:13;;;;;;;12.90;1.60;;;;;;;;;;4993344;28;20023;-91
2023/12/26 14:53:56;;;;;;;10.23;1.50;;;;;;;;;;4993857;28;20026;-91
2023/12/26 14:56:40;;;;;;;9.47;1.77;;;;;;;;;;4991916;28;20843;-90
2023/12/26 14:59:24;;;;;;;10.65;1.10;;;;;;;;;;4993533;28;20035;-92
2023/12/26 15:02:01;;;;;;;13.77;1.70;;;;;;;;;;4994230;28;20039;-90
2023/12/26 15:04:28;;;;;;;11.20;1.13;;;;;;;;;;4994391;28;20145;-91
2023/12/26 15:06:57;;;;;;;9.05;1.27;;;;;;;;;;4994819;28;20037;-91
2023/12/26 15:09:22;;;;;;;13.57;1.70;;;;;;;;;;4994281;28;20073;-91
2023/12/26 15:11:49;;;;;;;9.27;1.33;;;;;;;;;;4994060;28;20041;-90
2023/12/26 15:14:14;;;;;;;9.63;1.40;;;;;;;;;;4993732;28;20561;-91
2023/12/26 15:16:40;;;;;;;8.85;1.40;;;;;;;;;;4996561;28;20037;-91
2023/12/26 15:19:05;;;;;;;7.70;1.73;;;;;;;;;;4999396;28;20675;-91
2023/12/26 15:21:30;;;;;;;8.20;1.30;;;;;;;;;;5004378;28;20030;-92
2023/12/26 15:23:56;;;;;;;7.97;1.47;;;;;;;;;;5011472;28;20053;-91
2023/12/26 15:26:21;;;;;;;9.30;1.37;;;;;;;;;;5015362;28;20029;-90
2023/12/26 15:28:47;;;;;;;7.57;1.35;;;;;;;;;;5013305;28;20014;-92
2023/12/26 15:31:16;;;;;;;9.43;1.40;;;;;;;;;;5013711;28;20018;-92
2023/12/26 15:33:48;;;;;;;11.50;1.10;;;;;;;;;;5012458;28;20026;-90
2023/12/26 15:36:19;;;;;;;9.50;1.75;;;;;;;;;;5009544;28;20049;-90
2023/12/26 15:38:45;;;;;;;11.52;3.17;;;;;;;;;;4988559;28;20021;-91
2023/12/26 15:41:11;;;;;;;9.13;2.63;;;;;;;;;;4987676;28;20023;-91
2023/12/26 15:43:36;;;;;;;10.55;1.95;;;;;;;;;;5007618;28;20090;-92
2023/12/26 15:46:02;;;;;;;7.00;1.60;;;;;;;;;;5012473;28;20022;-90
2023/12/26 15:48:28;;;;;;;10.53;1.13;;;;;;;;;;5012467;28;20066;-91
2023/12/26 15:50:53;;;;;;;9.35;1.80;;;;;;;;;;5012625;28;20033;-90
2023/12/26 15:53:18;;;;;;;8.77;1.40;;;;;;;;;;5010346;28;20470;-92
2023/12/26 15:55:43;;;;;;;6.53;1.20;;;;;;;;;;5009317;28;20573;-94
2023/12/26 15:58:09;;;;;;;9.17;1.20;;;;;;;;;;4993665;28;20038;-89
2023/12/26 16:00:35;;;;;;;4.88;1.27;;;;;;;;;;4993297;28;20077;-90
2023/12/26 16:03:00;;;;;;;8.83;1.87;;;;;;;;;;4991761;28;20463;-90
2023/12/26 16:05:25;;;;;;;6.37;1.03;;;;;;;;;;4992024;28;20042;-89
2023/12/26 16:07:50;;;;;;;7.80;1.93;;;;;;;;;;4992311;28;20101;-87
2023/12/26 16:10:18;;;;;;;3.27;0.87;;;;;;;;;;4991229;28;20023;-89
2023/12/26 16:12:45;;;;;;;12.73;1.55;;;;;;;;;;4990166;28;20019;-92
2023/12/26 16:15:10;;;;;;;5.20;0.95;;;;;;;;;;4974897;28;20105;-92
2023/12/26 16:17:35;;;;;;;11.23;2.13;;;;;;;;;;4993850;28;20046;-93
2023/12/26 16:20:01;;;;;;;11.43;1.93;;;;;;;;;;4996378;28;20046;-93
2023/12/26 16:22:26;;;;;;;9.73;1.67;;;;;;;;;;5002468;28;20022;-93
2023/12/26 16:24:51;;;;;;;11.23;1.40;;;;;;;;;;5000699;28;20101;-92
2023/12/26 16:27:20;;;;;;;9.80;1.20;;;;;;;;;;4999789;28;20026;-92
2023/12/26 16:29:45;;;;;;;8.93;1.27;;;;;;;;;;4999960;28;20018;-93
2023/12/26 16:32:13;;;;;;;6.17;1.17;;;;;;;;;;4994512;28;20276;-92
2023/12/26 16:34:38;;;;;;;8.07;1.20;;;;;;;;;;4999727;28;20027;-92
2023/12/26 16:37:04;;;;;;;7.37;1.23;;;;;;;;;;5014112;28;20285;-93
2023/12/26 16:39:29;;;;;;;9.67;1.30;;;;;;;;;;5009191;28;20082;-93
2023/12/26 16:42:07;;;;;;;6.27;1.33;;;;;;;;;;5000437;28;20050;-93
2023/12/26 16:44:33;;;;;;;6.45;1.10;;;;;;;;;;4980655;28;20019;-95
2023/12/26 16:46:58;;;;;;;8.95;1.50;;;;;;;;;;4995107;28;20022;-92
2023/12/26 16:49:23;;;;;;;11.40;1.30;;;;;;;;;;4999455;28;20014;-92
2023/12/26 16:51:48;;;;;;;10.23;1.50;;;;;;;;;;4998103;28;20466;-92
2023/12/26 16:54:14;;;;;;;12.13;1.40;;;;;;;;;;5009505;28;20394;-92
2023/12/26 16:56:39;;;;;;;7.70;1.30;;;;;;;;;;4996309;28;20490;-90
2023/12/26 16:59:05;;;;;;;7.47;1.10;;;;;;;;;;4993303;28;20083;-90
2023/12/26 17:01:30;;;;;;;6.53;1.27;;;;;;;;;;4993127;28;20113;-90
2023/12/26 17:03:56;;;;;;;6.73;1.30;;;;;;;;;;4997239;28;20108;-91
2023/12/26 17:06:21;;;;;;;8.97;1.80;;;;;;;;;;4979929;28;20022;-89
2023/12/26 17:08:46;;;;;;;9.90;1.97;;;;;;;;;;4995298;28;20014;-92
2023/12/26 17:11:11;;;;;;;12.23;2.20;;;;;;;;;;4995460;28;20050;-91
2023/12/26 17:13:37;;;;;;;8.13;1.70;;;;;;;;;;4994764;28;20292;-92
2023/12/26 17:16:02;;;;;;;15.23;1.77;;;;;;;;;;4997469;28;20027;-92
2023/12/26 17:18:27;;;;;;;9.03;1.50;;;;;;;;;;5007018;28;20418;-92
2023/12/26 17:20:52;;;;;;;6.80;1.40;;;;;;;;;;5008644;28;20038;-91
2023/12/26 17:23:18;;;;;;;9.87;2.00;;;;;;;;;;4989122;28;20027;-87
2023/12/26 17:25:44;;;;;;;9.87;1.90;;;;;;;;;;4990648;28;20109;-87
2023/12/26 17:28:10;;;;;;;7.90;1.50;;;;;;;;;;4991904;28;20065;-87